Time;durP1;ratioP1;P1;durP2;ratioP2;P2;SDS_P1;SDS_P2;PMS_P1;PMS_P2;Temp;Humidity;BMP_temperature;BMP_pressure;BME280_temperature;BME280_humidity;BME280_pressure;Samples;Min_cycle;Max_cycle;Signal;HPM_P1;HPM_P2
2023/03/11 00:01:48;;;;;;;12.20;5.70;;;;;;;7.34;97.00;96462.29;269533;1269;22541;-83
2023/03/11 00:07:50;;;;;;;11.80;5.90;;;;;;;7.22;96.89;96462.95;273354;1269;22287;-83
2023/03/11 00:14:04;;;;;;;10.00;4.90;;;;;;;7.15;97.16;96468.35;273384;1270;22292;-83
2023/03/11 00:20:07;;;;;;;10.50;4.70;;;;;;;7.13;97.25;96465.90;272632;1269;22531;-82
2023/03/11 00:26:35;;;;;;;7.90;4.60;;;;;;;7.14;97.14;96460.91;273052;1262;22414;-82
2023/03/11 00:32:36;;;;;;;8.80;4.90;;;;;;;7.15;97.18;96457.46;272383;1269;22509;-84
2023/03/11 00:38:44;;;;;;;9.10;4.60;;;;;;;7.20;97.38;96452.02;271079;1269;25386;-83
2023/03/11 00:44:47;;;;;;;8.10;5.10;;;;;;;7.24;97.21;96449.31;269812;1258;22527;-83
2023/03/11 00:50:50;;;;;;;11.40;5.50;;;;;;;7.16;96.82;96453.64;270827;1267;22614;-82
2023/03/11 00:56:58;;;;;;;12.50;4.80;;;;;;;7.04;96.92;96447.77;273548;1269;22227;-83
2023/03/11 01:03:00;;;;;;;9.70;5.60;;;;;;;6.98;97.28;96444.84;273321;1266;22207;-82
2023/03/11 01:09:03;;;;;;;7.90;4.20;;;;;;;6.94;97.38;96438.98;273470;1262;22187;-83
2023/03/11 01:15:06;;;;;;;6.50;4.20;;;;;;;6.92;97.58;96438.63;273581;1272;22223;-83
2023/03/11 01:21:08;;;;;;;8.90;4.60;;;;;;;6.93;97.82;96430.54;273344;1259;22446;-83
2023/03/11 01:27:10;;;;;;;9.10;5.10;;;;;;;6.98;97.95;96434.27;273360;1269;22377;-83
2023/03/11 01:33:33;;;;;;;7.60;4.60;;;;;;;7.04;98.14;96438.44;273356;1269;22517;-83
2023/03/11 01:39:35;;;;;;;7.40;4.00;;;;;;;7.10;98.28;96434.15;272365;1267;22559;-83
2023/03/11 01:45:49;;;;;;;6.10;2.50;;;;;;;7.23;97.97;96433.86;269814;1259;22543;-82
2023/03/11 01:52:21;;;;;;;4.30;1.80;;;;;;;7.42;96.87;96436.17;269713;1259;22621;-82
2023/03/11 01:58:30;;;;;;;2.30;1.50;;;;;;;7.59;95.76;96435.58;272021;1256;22201;-82
2023/03/11 02:04:52;;;;;;;4.20;1.60;;;;;;;7.68;95.45;96440.23;271974;1263;23958;-81
2023/03/11 02:11:11;;;;;;;2.10;1.10;;;;;;;7.76;94.38;96440.55;271785;1270;23145;-81
2023/03/11 02:17:13;;;;;;;3.60;0.90;;;;;;;7.83;92.88;96441.96;273143;1259;22378;-82
2023/03/11 02:24:08;;;;;;;4.40;0.80;;;;;;;7.81;91.49;96447.59;273248;1259;22407;-82
2023/03/11 02:30:31;;;;;;;5.90;1.80;;;;;;;7.74;91.00;96443.23;270669;1263;23316;-82
2023/03/11 02:36:42;;;;;;;3.20;1.30;;;;;;;7.63;90.86;96447.16;271165;1269;22264;-82
2023/03/11 02:43:08;;;;;;;5.10;1.60;;;;;;;7.54;90.77;96452.92;270238;1259;25159;-82
2023/03/11 02:49:35;;;;;;;2.60;0.80;;;;;;;7.49;90.63;96452.61;269262;1270;22680;-82
2023/03/11 02:55:37;;;;;;;4.00;1.60;;;;;;;7.46;90.01;96456.33;269382;1253;25333;-84
2023/03/11 03:01:38;;;;;;;2.50;0.60;;;;;;;7.40;89.32;96461.17;270132;1259;22922;-82
2023/03/11 03:07:40;;;;;;;1.10;0.30;;;;;;;7.32;88.13;96459.74;269381;1269;22546;-82
2023/03/11 03:14:02;;;;;;;1.40;0.60;;;;;;;7.22;87.29;96463.25;270753;1270;23431;-82
2023/03/11 03:20:10;;;;;;;1.30;0.60;;;;;;;7.15;86.46;96465.31;273243;1259;22661;-82
2023/03/11 03:26:53;;;;;;;1.50;0.60;;;;;;;7.10;85.88;96461.59;273490;1262;22217;-83
2023/03/11 03:33:17;;;;;;;2.10;0.50;;;;;;;7.03;86.07;96459.98;273859;1272;22202;-83
2023/03/11 03:39:35;;;;;;;1.10;0.70;;;;;;;6.97;85.98;96454.33;273188;1269;23139;-83
2023/03/11 03:45:42;;;;;;;1.60;0.40;;;;;;;6.94;85.85;96456.87;272319;1263;22537;-83
2023/03/11 03:52:05;;;;;;;1.50;0.60;;;;;;;6.92;85.86;96467.48;271615;1259;22204;-82
2023/03/11 03:58:07;;;;;;;0.60;0.40;;;;;;;6.88;85.59;96463.72;272222;1263;22559;-82
2023/03/11 04:04:11;;;;;;;4.30;0.80;;;;;;;6.84;85.26;96464.00;272333;1269;23852;-84
2023/03/11 04:10:13;;;;;;;4.20;1.50;;;;;;;6.81;85.01;96457.36;273647;1260;22205;-83
2023/03/11 04:16:19;;;;;;;4.00;0.90;;;;;;;6.77;84.63;96451.13;273424;1271;22416;-82
2023/03/11 04:22:21;;;;;;;3.60;0.90;;;;;;;6.75;84.63;96445.35;273148;1270;22309;-83
2023/03/11 04:28:23;;;;;;;6.50;1.10;;;;;;;6.71;84.62;96444.70;272196;1259;22211;-83
2023/03/11 04:34:25;;;;;;;3.10;1.00;;;;;;;6.67;84.54;96439.94;273246;1268;23208;-82
2023/03/11 04:41:08;;;;;;;1.30;0.60;;;;;;;6.61;84.73;96436.06;273380;1272;22260;-83
2023/03/11 04:47:50;;;;;;;2.40;0.90;;;;;;;6.57;84.54;96440.40;272848;1270;22456;-82
2023/03/11 04:53:53;;;;;;;5.80;1.40;;;;;;;6.50;84.35;96447.39;272833;1264;22399;-82
2023/03/11 05:00:11;;;;;;;1.70;0.80;;;;;;;6.38;84.14;96459.60;273340;1269;22202;-82
2023/03/11 05:06:32;;;;;;;4.30;0.90;;;;;;;6.24;84.37;96454.65;271595;1270;23243;-81
2023/03/11 05:12:36;;;;;;;3.50;1.20;;;;;;;6.11;84.43;96456.36;269806;1269;127833;-81
2023/03/11 05:18:38;;;;;;;6.00;1.60;;;;;;;6.00;85.25;96461.39;272165;1269;22296;-82
2023/03/11 05:24:41;;;;;;;4.10;1.50;;;;;;;5.88;85.81;96459.20;273221;1259;22274;-82
2023/03/11 05:31:06;;;;;;;4.00;1.70;;;;;;;5.74;86.46;96454.43;271088;1270;22667;-80
2023/03/11 05:37:08;;;;;;;2.70;1.20;;;;;;;5.56;86.93;96451.66;270638;1269;22653;-82
2023/03/11 05:43:10;;;;;;;2.40;1.20;;;;;;;5.39;88.05;96452.45;270427;1263;22966;-83
2023/03/11 05:49:14;;;;;;;2.50;1.10;;;;;;;5.26;88.70;96456.35;270219;1260;23651;-83
2023/03/11 05:55:17;;;;;;;4.10;1.70;;;;;;;5.19;88.93;96462.31;272039;1262;23369;-82
2023/03/11 06:01:47;;;;;;;4.00;1.10;;;;;;;5.10;88.68;96482.91;270157;1269;24233;-83
2023/03/11 06:07:49;;;;;;;4.20;0.90;;;;;;;4.92;88.54;96508.52;269352;1269;23961;-83
2023/03/11 06:13:53;;;;;;;3.10;1.30;;;;;;;4.64;87.74;96523.17;269515;1270;22570;-82
2023/03/11 06:20:17;;;;;;;2.30;1.20;;;;;;;4.33;87.62;96542.42;270150;1269;24663;-84
2023/03/11 06:26:20;;;;;;;1.40;1.10;;;;;;;4.11;87.44;96561.45;270219;1267;23895;-83
2023/03/11 06:32:23;;;;;;;2.40;1.10;;;;;;;3.96;87.59;96575.41;269817;1267;22731;-82
2023/03/11 06:38:28;;;;;;;4.10;1.40;;;;;;;3.93;87.66;96584.69;270785;1270;22239;-83
2023/03/11 06:44:58;;;;;;;3.60;1.20;;;;;;;3.99;87.66;96591.10;269901;1270;23762;-82
2023/03/11 06:51:39;;;;;;;1.90;1.10;;;;;;;3.98;87.08;96601.85;269584;1259;23810;-84
2023/03/11 06:58:02;;;;;;;3.40;1.60;;;;;;;3.93;87.24;96612.23;269979;1269;22216;-82
2023/03/11 07:04:05;;;;;;;2.60;1.40;;;;;;;3.90;87.41;96625.92;271452;1270;23613;-83
2023/03/11 07:10:08;;;;;;;3.00;1.30;;;;;;;3.87;87.21;96634.59;270989;1271;22522;-83
2023/03/11 07:16:32;;;;;;;3.10;1.50;;;;;;;3.83;87.30;96648.65;270753;1269;22426;-82
2023/03/11 07:23:14;;;;;;;4.00;1.60;;;;;;;3.78;87.17;96660.40;273310;1270;23161;-82
2023/03/11 07:29:16;;;;;;;2.00;1.50;;;;;;;3.71;87.35;96675.79;273232;1272;23637;-82
2023/03/11 07:35:17;;;;;;;3.50;1.80;;;;;;;3.52;87.74;96690.75;273044;1267;22612;-83
2023/03/11 07:41:19;;;;;;;5.20;2.80;;;;;;;3.34;88.66;96694.83;272497;1267;22203;-82
2023/03/11 07:47:21;;;;;;;2.90;2.20;;;;;;;3.27;89.29;96702.83;273208;1270;23344;-82
2023/03/11 07:53:23;;;;;;;3.80;2.80;;;;;;;3.19;90.01;96719.27;270389;1270;26124;-82
2023/03/11 07:59:45;;;;;;;4.70;3.50;;;;;;;3.07;90.66;96723.23;271577;1269;23180;-83
2023/03/11 08:05:47;;;;;;;5.70;4.30;;;;;;;2.90;91.37;96728.71;273143;1270;22644;-82
2023/03/11 08:11:48;;;;;;;7.90;3.60;;;;;;;2.73;91.55;96737.42;273310;1270;23733;-82
2023/03/11 08:17:50;;;;;;;7.30;4.60;;;;;;;2.60;92.64;96744.54;273193;1270;22428;-85
2023/03/11 08:23:56;;;;;;;7.90;3.90;;;;;;;2.71;93.46;96747.54;273123;1270;22544;-82
2023/03/11 08:30:18;;;;;;;7.90;4.20;;;;;;;2.86;93.84;96748.08;271993;1270;22435;-82
2023/03/11 08:36:40;;;;;;;4.40;3.20;;;;;;;2.97;94.02;96751.76;273331;1259;22196;-82
2023/03/11 08:42:42;;;;;;;5.40;2.60;;;;;;;3.03;94.68;96759.59;273379;1270;22441;-84
2023/03/11 08:48:44;;;;;;;5.70;3.30;;;;;;;3.19;95.06;96766.84;273188;1270;23354;-82
2023/03/11 08:54:45;;;;;;;8.60;3.10;;;;;;;3.44;95.26;96780.70;273319;1269;22193;-82
2023/03/11 09:00:47;;;;;;;6.90;3.00;;;;;;;3.53;95.25;96782.42;272849;1267;22423;-82
2023/03/11 09:06:49;;;;;;;6.70;3.20;;;;;;;3.55;95.27;96790.15;273151;1257;22171;-82
2023/03/11 09:12:54;;;;;;;5.00;3.00;;;;;;;3.52;95.18;96797.80;273875;1270;22977;-82
2023/03/11 09:19:05;;;;;;;5.30;3.40;;;;;;;3.47;95.10;96806.83;272012;1269;25442;-82
2023/03/11 09:25:09;;;;;;;4.20;2.90;;;;;;;3.38;94.99;96816.83;272197;1269;22799;-82
2023/03/11 09:31:10;;;;;;;5.60;3.10;;;;;;;3.32;94.75;96828.86;270166;1269;22546;-82
2023/03/11 09:37:12;;;;;;;5.80;2.60;;;;;;;3.23;94.73;96834.14;269406;1253;22788;-82
2023/03/11 09:43:52;;;;;;;8.80;3.60;;;;;;;3.11;94.75;96841.71;269241;1257;23427;-82
2023/03/11 09:50:14;;;;;;;7.50;3.50;;;;;;;3.03;95.71;96852.41;272668;1269;22241;-82
2023/03/11 09:56:35;;;;;;;5.90;3.20;;;;;;;3.03;95.75;96859.74;273247;1270;22375;-82
2023/03/11 10:02:57;;;;;;;8.60;3.40;;;;;;;3.03;96.15;96868.55;273272;1269;22405;-82
2023/03/11 10:09:04;;;;;;;5.20;3.60;;;;;;;2.97;95.97;96874.70;273309;1256;22261;-82
2023/03/11 10:15:22;;;;;;;5.20;3.00;;;;;;;2.87;96.02;96891.23;272930;1257;23581;-82
2023/03/11 10:21:47;;;;;;;8.40;4.30;;;;;;;2.91;96.83;96901.91;273130;1261;22202;-82
2023/03/11 10:28:15;;;;;;;6.80;3.40;;;;;;;2.90;96.88;96916.95;271254;1270;23762;-81
2023/03/11 10:34:45;;;;;;;7.60;3.70;;;;;;;2.77;96.86;96920.16;271134;1269;22554;-80
2023/03/11 10:41:18;;;;;;;6.30;3.50;;;;;;;2.68;96.94;96932.75;270035;1270;23107;-83
2023/03/11 10:47:23;;;;;;;5.30;3.40;;;;;;;2.59;97.07;96945.79;269721;1270;22518;-84
2023/03/11 10:53:25;;;;;;;5.10;3.60;;;;;;;2.47;97.30;96951.92;271308;1256;23352;-81
2023/03/11 10:59:47;;;;;;;10.10;4.10;;;;;;;2.34;97.41;96959.36;273193;1264;22719;-84
2023/03/11 11:06:38;;;;;;;5.60;3.20;;;;;;;2.23;97.72;96970.02;270344;1270;23698;-81
2023/03/11 11:13:21;;;;;;;8.20;4.40;;;;;;;2.06;97.90;96982.39;271025;1267;22251;-82
2023/03/11 11:19:23;;;;;;;8.80;5.20;;;;;;;1.95;98.29;96993.67;271739;1270;22535;-81
2023/03/11 11:25:30;;;;;;;8.00;4.90;;;;;;;1.86;98.29;97002.73;270510;1266;24232;-83
2023/03/11 11:31:33;;;;;;;;;;;;;;;1.67;98.61;97012.04;273041;1269;22532;-82
2023/03/11 11:37:37;;;;;;;8.50;5.20;;;;;;;1.51;98.96;97031.23;273010;1263;22462;-84
2023/03/11 11:44:28;;;;;;;7.00;4.30;;;;;;;1.42;99.27;97034.33;272964;1270;22457;-82
2023/03/11 11:51:12;;;;;;;7.50;4.90;;;;;;;1.33;99.63;97051.27;273003;1267;22199;-81
2023/03/11 11:58:01;;;;;;;8.90;5.60;;;;;;;1.28;99.89;97063.22;272053;1272;22385;-82
2023/03/11 12:04:43;;;;;;;7.40;4.20;;;;;;;1.25;100.00;97074.64;272364;1266;23892;-82
2023/03/11 12:11:05;;;;;;;8.60;4.40;;;;;;;1.17;100.00;97088.22;272643;1272;22225;-82
2023/03/11 12:17:09;;;;;;;7.60;4.90;;;;;;;1.09;100.00;97108.17;272285;1272;22403;-82
2023/03/11 12:23:36;;;;;;;13.40;6.40;;;;;;;1.01;100.00;97130.35;271581;1261;22521;-83
2023/03/11 12:30:00;;;;;;;11.10;5.80;;;;;;;0.87;100.00;97152.03;270457;1269;22559;-82
2023/03/11 12:36:23;;;;;;;9.70;6.00;;;;;;;0.75;100.00;97173.48;270548;1269;23496;-83
2023/03/11 12:42:57;;;;;;;10.40;5.50;;;;;;;0.58;100.00;97198.38;268922;1266;22725;-83
2023/03/11 12:49:23;;;;;;;7.90;5.00;;;;;;;0.51;100.00;97232.14;272328;1269;22641;-84
2023/03/11 12:55:30;;;;;;;12.00;5.40;;;;;;;0.55;100.00;97261.08;269248;1269;22554;-83
2023/03/11 13:02:15;;;;;;;8.30;5.20;;;;;;;0.59;100.00;97279.63;269627;1269;22669;-82
2023/03/11 13:08:21;;;;;;;11.80;7.00;;;;;;;0.52;100.00;97289.33;270595;1269;22484;-83
2023/03/11 13:14:49;;;;;;;11.50;7.10;;;;;;;0.46;100.00;97292.10;272124;1269;22382;-86
2023/03/11 13:20:59;;;;;;;11.60;6.30;;;;;;;0.48;100.00;97317.14;272974;1257;22422;-85
2023/03/11 13:27:31;;;;;;;8.20;5.40;;;;;;;0.56;100.00;97341.40;272734;1270;22484;-83
2023/03/11 13:33:51;;;;;;;8.20;5.50;;;;;;;0.67;100.00;97360.98;273128;1267;22375;-83
2023/03/11 13:40:03;;;;;;;10.90;6.30;;;;;;;0.84;100.00;97380.16;273127;1263;22433;-82
2023/03/11 13:46:26;;;;;;;14.00;7.50;;;;;;;0.98;100.00;97397.88;273686;1277;22191;-82
2023/03/11 13:53:14;;;;;;;14.50;8.70;;;;;;;0.86;100.00;97416.09;273309;1270;22505;-82
2023/03/11 13:59:34;;;;;;;12.50;7.30;;;;;;;0.72;100.00;97432.67;273337;1269;22287;-83
2023/03/11 14:05:39;;;;;;;11.70;6.10;;;;;;;0.68;100.00;97450.34;271126;1259;22556;-83
2023/03/11 14:11:47;;;;;;;10.60;5.90;;;;;;;0.65;100.00;97472.13;270020;1263;22457;-84
2023/03/11 14:17:51;;;;;;;7.50;4.70;;;;;;;0.63;100.00;97485.23;273016;1259;22355;-84
2023/03/11 14:24:18;;;;;;;8.90;4.90;;;;;;;0.62;100.00;97505.14;273320;1272;22224;-84
2023/03/11 14:30:23;;;;;;;9.00;5.00;;;;;;;0.59;100.00;97524.06;272639;1269;23590;-84
2023/03/11 14:36:25;;;;;;;9.70;5.10;;;;;;;0.52;100.00;97530.40;270133;1270;24189;-83
2023/03/11 14:42:28;;;;;;;11.40;5.50;;;;;;;0.48;100.00;97539.61;270129;1256;22569;-83
2023/03/11 14:48:54;;;;;;;19.00;7.60;;;;;;;0.42;100.00;97553.98;269892;1259;23720;-83
2023/03/11 14:54:56;;;;;;;20.80;8.80;;;;;;;0.33;100.00;97571.11;270319;1263;22653;-83
2023/03/11 15:01:14;;;;;;;12.60;6.20;;;;;;;0.26;100.00;97583.89;269956;1260;22556;-82
2023/03/11 15:07:21;;;;;;;9.70;5.90;;;;;;;0.20;100.00;97589.95;270075;1269;22640;-83
2023/03/11 15:13:46;;;;;;;14.90;7.30;;;;;;;0.19;100.00;97604.15;269742;1269;22575;-82
2023/03/11 15:20:43;;;;;;;12.00;7.20;;;;;;;0.16;100.00;97617.59;269387;1260;22669;-82
2023/03/11 15:27:27;;;;;;;13.10;7.70;;;;;;;0.10;100.00;97630.33;269814;1262;22586;-83
2023/03/11 15:33:55;;;;;;;13.80;8.40;;;;;;;0.09;100.00;97650.20;269949;1269;22302;-83
2023/03/11 15:40:24;;;;;;;16.20;9.10;;;;;;;0.07;100.00;97659.70;271650;1270;23464;-82
2023/03/11 15:46:29;;;;;;;14.20;8.80;;;;;;;0.11;100.00;97667.56;270076;1256;22504;-82
2023/03/11 15:52:33;;;;;;;17.40;9.50;;;;;;;0.13;100.00;97674.61;269813;1257;22493;-82
2023/03/11 15:59:10;;;;;;;16.60;10.20;;;;;;;0.12;100.00;97684.52;270144;1256;22506;-83
2023/03/11 16:05:42;;;;;;;17.30;9.20;;;;;;;0.12;100.00;97695.90;270616;1256;25460;-82
2023/03/11 16:11:51;;;;;;;16.00;9.10;;;;;;;0.10;100.00;97709.45;270320;1259;22623;-83
2023/03/11 16:18:13;;;;;;;16.40;9.80;;;;;;;0.08;100.00;97721.46;269351;1265;22571;-82
2023/03/11 16:24:38;;;;;;;20.40;11.70;;;;;;;0.10;100.00;97732.27;269644;1259;22530;-84
2023/03/11 16:30:40;;;;;;;19.10;10.60;;;;;;;0.09;100.00;97743.23;270187;1270;25280;-83
2023/03/11 16:36:42;;;;;;;22.60;11.50;;;;;;;0.05;100.00;97755.81;271217;1271;22389;-84
2023/03/11 16:42:44;;;;;;;20.40;12.10;;;;;;;0.06;100.00;97768.05;269865;1268;22887;-82
2023/03/11 16:48:46;;;;;;;19.20;12.10;;;;;;;0.07;100.00;97779.07;269314;1262;25403;-80
2023/03/11 16:54:48;;;;;;;23.50;11.80;;;;;;;0.04;100.00;97792.36;269301;1270;22534;-82
2023/03/11 17:00:50;;;;;;;19.10;10.40;;;;;;;0.00;100.00;97807.48;269204;1259;24245;-82
2023/03/11 17:06:52;;;;;;;17.90;10.50;;;;;;;-0.02;100.00;97825.98;269475;1268;22583;-83
2023/03/11 17:12:54;;;;;;;22.00;11.40;;;;;;;-0.04;100.00;97841.52;270267;1269;244378;-82
2023/03/11 17:19:00;;;;;;;22.60;11.30;;;;;;;-0.07;100.00;97856.80;271921;1269;22407;-82
2023/03/11 17:25:02;;;;;;;21.30;12.60;;;;;;;-0.08;100.00;97875.84;270817;1262;22658;-83
2023/03/11 17:31:06;;;;;;;23.80;12.10;;;;;;;-0.09;100.00;97885.09;271372;1270;22555;-83
2023/03/11 17:37:09;;;;;;;19.00;11.00;;;;;;;-0.11;100.00;97892.04;269917;1269;23316;-84
2023/03/11 17:44:12;;;;;;;15.90;8.90;;;;;;;-0.17;100.00;97907.32;271066;1270;25280;-81
2023/03/11 17:50:16;;;;;;;15.90;8.30;;;;;;;-0.23;100.00;97923.64;270477;1269;22525;-82
2023/03/11 17:56:39;;;;;;;18.20;9.00;;;;;;;-0.25;100.00;97936.09;272967;1268;22455;-81
2023/03/11 18:03:22;;;;;;;12.90;7.20;;;;;;;-0.27;100.00;97948.80;272557;1259;22265;-81
2023/03/11 18:09:24;;;;;;;13.90;7.10;;;;;;;-0.28;100.00;97961.59;272287;1269;22307;-83
2023/03/11 18:15:26;;;;;;;17.60;8.40;;;;;;;-0.28;100.00;97978.77;272053;1258;22563;-83
2023/03/11 18:21:29;;;;;;;12.10;6.30;;;;;;;-0.30;100.00;98008.65;272036;1268;22590;-81
2023/03/11 18:27:31;;;;;;;12.60;6.40;;;;;;;-0.37;100.00;98015.33;271008;1259;22412;-81
2023/03/11 18:33:35;;;;;;;18.20;8.70;;;;;;;-0.40;100.00;98026.73;273684;1269;22255;-81
2023/03/11 18:39:37;;;;;;;22.80;9.30;;;;;;;-0.37;100.00;98031.29;271886;1272;22662;-81
2023/03/11 18:45:41;;;;;;;23.80;10.20;;;;;;;-0.33;100.00;98045.12;264100;1269;10001816;-81
2023/03/11 18:51:42;;;;;;;17.00;7.80;;;;;;;-0.33;100.00;98060.44;271164;1270;22947;-80
2023/03/11 18:57:45;;;;;;;15.50;7.50;;;;;;;-0.31;100.00;98066.93;271795;1268;23230;-82
2023/03/11 19:03:56;;;;;;;18.80;9.60;;;;;;;-0.30;100.00;98073.70;271657;1270;23471;-83
2023/03/11 19:09:58;;;;;;;18.40;10.40;;;;;;;-0.28;100.00;98083.90;271934;1263;22559;-83
2023/03/11 19:16:00;;;;;;;20.10;10.80;;;;;;;-0.26;100.00;98092.03;271739;1263;22559;-82
2023/03/11 19:22:01;;;;;;;21.70;11.40;;;;;;;-0.28;100.00;98098.55;271526;1256;23725;-80
2023/03/11 19:28:03;;;;;;;24.30;12.70;;;;;;;-0.29;100.00;98111.81;271890;1270;22570;-82
2023/03/11 19:34:05;;;;;;;18.60;10.40;;;;;;;-0.34;100.00;98131.08;271791;1271;22182;-81
2023/03/11 19:40:08;;;;;;;29.80;11.80;;;;;;;-0.37;100.00;98148.17;271538;1269;22542;-80
2023/03/11 19:46:23;;;;;;;18.10;10.80;;;;;;;-0.37;100.00;98153.02;271110;1269;22815;-81
2023/03/11 19:52:27;;;;;;;19.90;10.90;;;;;;;-0.35;100.00;98166.31;270764;1270;22567;-80
2023/03/11 19:58:49;;;;;;;19.90;10.90;;;;;;;-0.34;100.00;98184.14;271055;1271;22341;-81
2023/03/11 20:05:20;;;;;;;26.00;10.50;;;;;;;-0.40;100.00;98190.77;271609;1270;23611;-81
2023/03/11 20:11:22;;;;;;;19.80;10.90;;;;;;;-0.45;100.00;98193.71;272574;1259;22199;-81
2023/03/11 20:17:24;;;;;;;23.30;12.30;;;;;;;-0.47;100.00;98202.33;271269;1270;23996;-81
2023/03/11 20:23:27;;;;;;;22.20;11.10;;;;;;;-0.46;100.00;98215.41;271117;1270;23653;-81
2023/03/11 20:29:31;;;;;;;20.60;11.30;;;;;;;-0.49;100.00;98221.96;271892;1268;23682;-82
2023/03/11 20:35:34;;;;;;;17.40;9.20;;;;;;;-0.55;100.00;98221.80;271069;1268;23691;-82
2023/03/11 20:41:37;;;;;;;18.60;10.00;;;;;;;-0.60;100.00;98226.73;271118;1272;22646;-82
2023/03/11 20:47:42;;;;;;;19.00;9.50;;;;;;;-0.65;100.00;98229.95;271230;1267;22665;-83
2023/03/11 20:53:49;;;;;;;20.30;11.40;;;;;;;-0.71;100.00;98234.02;271217;1270;22345;-82
2023/03/11 20:59:59;;;;;;;23.30;11.90;;;;;;;-0.78;100.00;98238.90;270750;1270;22612;-81
2023/03/11 21:06:01;;;;;;;18.50;11.10;;;;;;;-0.83;100.00;98240.61;270766;1263;23913;-82
2023/03/11 21:12:04;;;;;;;20.80;11.10;;;;;;;-0.88;100.00;98244.01;270254;1272;22567;-82
2023/03/11 21:18:06;;;;;;;24.10;12.20;;;;;;;-0.91;100.00;98240.98;272069;1270;22547;-83
2023/03/11 21:24:09;;;;;;;22.50;12.90;;;;;;;-0.89;100.00;98243.58;270762;1270;22281;-83
2023/03/11 21:30:17;;;;;;;22.00;12.80;;;;;;;-0.85;100.00;98241.15;271194;1272;24288;-81
2023/03/11 21:36:19;;;;;;;23.20;13.00;;;;;;;-0.80;100.00;98246.43;271843;1272;22424;-82
2023/03/11 21:42:21;;;;;;;30.90;13.40;;;;;;;-0.76;100.00;98251.20;271539;1270;22411;-82
2023/03/11 21:48:23;;;;;;;31.40;15.40;;;;;;;-0.72;100.00;98256.77;273080;1272;22330;-85
2023/03/11 21:54:25;;;;;;;28.30;15.00;;;;;;;-0.68;100.00;98263.16;273058;1268;22514;-84
2023/03/11 22:00:52;;;;;;;29.30;15.50;;;;;;;-0.64;100.00;98273.09;272758;1272;22364;-82
2023/03/11 22:06:53;;;;;;;27.70;13.60;;;;;;;-0.62;100.00;98281.53;271406;1268;22325;-82
2023/03/11 22:13:00;;;;;;;30.10;16.80;;;;;;;-0.62;100.00;98289.61;270829;1272;23588;-83
2023/03/11 22:19:04;;;;;;;;;;;;;;;-0.60;100.00;98298.44;271671;1272;22631;-82
2023/03/11 22:25:29;;;;;;;26.60;14.20;;;;;;;-0.59;100.00;98300.46;273386;1269;22209;-83
2023/03/11 22:31:52;;;;;;;32.70;16.60;;;;;;;-0.61;100.00;98306.45;273227;1269;22267;-82
2023/03/11 22:38:16;;;;;;;26.40;14.40;;;;;;;-0.62;100.00;98310.41;271017;1270;22596;-81
2023/03/11 22:44:18;;;;;;;28.60;13.90;;;;;;;-0.63;100.00;98315.15;272028;1259;22373;-83
2023/03/11 22:51:00;;;;;;;27.20;14.60;;;;;;;-0.61;100.00;98318.91;272500;1264;22451;-81
2023/03/11 22:57:16;;;;;;;28.70;14.10;;;;;;;-0.59;100.00;98321.31;271358;1272;22430;-82
2023/03/11 23:03:18;;;;;;;29.30;15.90;;;;;;;-0.56;100.00;98320.42;269644;1272;23800;-83
2023/03/11 23:09:21;;;;;;;31.20;15.90;;;;;;;-0.54;100.00;98321.27;271446;1270;24247;-83
2023/03/11 23:15:23;;;;;;;33.90;14.90;;;;;;;-0.55;100.00;98326.23;269371;1260;22611;-84
2023/03/11 23:21:49;;;;;;;32.70;15.50;;;;;;;-0.55;100.00;98331.29;272401;1263;22381;-81
2023/03/11 23:28:13;;;;;;;27.00;13.20;;;;;;;-0.57;100.00;98330.66;271514;1271;23055;-81
2023/03/11 23:34:16;;;;;;;25.60;13.80;;;;;;;-0.60;100.00;98336.02;269917;1260;22566;-82
2023/03/11 23:40:18;;;;;;;27.40;15.10;;;;;;;-0.63;100.00;98335.90;269946;1262;22403;-84
2023/03/11 23:46:27;;;;;;;22.60;14.20;;;;;;;-0.65;100.00;98339.63;270282;1271;23779;-83
2023/03/11 23:52:28;;;;;;;28.20;13.60;;;;;;;-0.68;100.00;98342.88;270218;1272;22728;-80
2023/03/11 23:58:31;;;;;;;30.00;15.50;;;;;;;-0.71;100.00;98348.95;269800;1270;24385;-82
